Time;durP1;ratioP1;P1;durP2;ratioP2;P2;SDS_P1;SDS_P2;PMS_P1;PMS_P2;Temp;Humidity;BMP_temperature;BMP_pressure;BME280_temperature;BME280_humidity;BME280_pressure;Samples;Min_cycle;Max_cycle;Signal;HPM_P1;HPM_P2
2023/10/16 00:01:27;;;;;;;8.13;3.77;;;5.70;99.90;;;;;;4997136;28;20536;-67
2023/10/16 00:03:57;;;;;;;5.17;3.23;;;5.70;99.90;;;;;;5007413;28;20248;-69
2023/10/16 00:06:25;;;;;;;5.90;3.40;;;5.70;99.90;;;;;;5000787;28;20201;-69
2023/10/16 00:08:53;;;;;;;5.63;2.80;;;5.70;99.90;;;;;;4989891;28;20973;-62
2023/10/16 00:11:25;;;;;;;5.63;3.60;;;5.60;99.90;;;;;;5002836;28;20226;-62
2023/10/16 00:13:54;;;;;;;7.33;3.83;;;5.70;99.90;;;;;;5005092;28;20201;-61
2023/10/16 00:16:21;;;;;;;4.60;3.07;;;5.60;99.90;;;;;;5004854;28;20229;-61
2023/10/16 00:18:52;;;;;;;11.97;3.63;;;5.60;99.90;;;;;;5007637;28;20215;-68
2023/10/16 00:21:20;;;;;;;5.77;3.47;;;5.60;99.90;;;;;;5015152;28;20240;-65
2023/10/16 00:23:47;;;;;;;9.17;3.57;;;5.50;99.90;;;;;;5006614;28;20612;-68
2023/10/16 00:26:21;;;;;;;6.37;3.37;;;5.60;99.90;;;;;;5008837;28;20652;-70
2023/10/16 00:29:38;;;;;;;7.00;3.30;;;5.50;99.90;;;;;;5006322;28;20276;-68
2023/10/16 00:31:42;;;;;;;5.40;3.50;;;5.40;99.90;;;;;;4986568;28;20193;-68
2023/10/16 00:34:10;;;;;;;7.20;3.17;;;5.30;99.90;;;;;;5007198;28;20214;-68
2023/10/16 00:36:37;;;;;;;8.77;5.87;;;5.30;99.90;;;;;;4990867;28;20189;-66
2023/10/16 00:39:13;;;;;;;13.93;5.97;;;5.30;99.90;;;;;;5010008;28;20192;-67
2023/10/16 00:41:44;;;;;;;6.50;4.17;;;5.30;99.90;;;;;;4984688;28;20216;-65
2023/10/16 00:44:11;;;;;;;6.10;3.83;;;5.30;99.90;;;;;;5004963;28;20763;-66
2023/10/16 00:46:39;;;;;;;13.60;5.67;;;5.30;99.90;;;;;;5011596;28;20208;-66
2023/10/16 00:49:07;;;;;;;9.63;5.70;;;5.20;99.90;;;;;;5010963;28;20273;-66
2023/10/16 00:51:40;;;;;;;8.83;4.60;;;5.20;99.90;;;;;;4992042;28;20211;-67
2023/10/16 00:54:18;;;;;;;6.50;4.23;;;5.10;99.90;;;;;;5004103;28;20255;-67
2023/10/16 00:56:51;;;;;;;6.30;3.83;;;5.10;99.90;;;;;;5007445;28;20196;-68
2023/10/16 00:59:18;;;;;;;7.00;4.33;;;5.10;99.90;;;;;;5008740;28;20227;-73
2023/10/16 01:01:45;;;;;;;9.03;5.90;;;5.10;99.90;;;;;;5009548;28;20209;-68
2023/10/16 01:04:14;;;;;;;13.70;7.13;;;5.10;99.90;;;;;;5008403;28;20664;-68
2023/10/16 01:06:44;;;;;;;8.53;5.67;;;5.00;99.90;;;;;;5005069;28;20296;-67
2023/10/16 01:09:24;;;;;;;8.63;5.43;;;5.00;99.90;;;;;;4988996;28;20232;-70
2023/10/16 01:11:52;;;;;;;9.93;5.23;;;5.00;99.90;;;;;;4990879;28;20203;-67
2023/10/16 01:14:20;;;;;;;11.37;3.90;;;5.00;99.90;;;;;;4989835;28;20193;-66
2023/10/16 01:16:49;;;;;;;6.43;4.73;;;5.00;1.00;;;;;;5007923;28;20260;-66
2023/10/16 01:19:19;;;;;;;11.17;5.00;;;5.00;1.00;;;;;;4971201;28;20243;-69
2023/10/16 01:21:48;;;;;;;13.13;8.03;;;5.00;1.00;;;;;;4971967;28;20523;-67
2023/10/16 01:24:16;;;;;;;8.20;4.97;;;5.00;1.00;;;;;;5006479;28;20646;-68
2023/10/16 01:26:44;;;;;;;14.10;5.20;;;5.10;1.00;;;;;;5007156;28;20195;-66
2023/10/16 01:29:14;;;;;;;18.33;6.40;;;5.10;1.00;;;;;;5008066;28;20193;-65
2023/10/16 01:31:44;;;;;;;23.00;7.77;;;5.10;1.00;;;;;;5005847;28;20204;-65
2023/10/16 01:34:11;;;;;;;17.60;8.60;;;5.20;1.00;;;;;;5007689;28;20201;-65
2023/10/16 01:36:46;;;;;;;10.67;4.93;;;5.10;1.00;;;;;;4986346;28;20553;-65
2023/10/16 01:42:11;;;;;;;9.20;4.40;;;5.10;1.00;;;;;;5002160;28;20200;-65
2023/10/16 01:44:44;;;;;;;13.43;5.50;;;5.20;1.00;;;;;;4986644;28;20181;-64
2023/10/16 01:47:15;;;;;;;10.50;5.67;;;5.10;1.00;;;;;;4989062;28;20189;-64
2023/10/16 01:49:44;;;;;;;12.60;5.60;;;5.10;1.00;;;;;;5001838;28;20276;-62
2023/10/16 01:52:11;;;;;;;11.47;4.93;;;5.30;1.00;;;;;;4992980;28;20213;-65
2023/10/16 01:54:42;;;;;;;7.70;4.67;;;5.30;1.00;;;;;;4972606;28;20211;-65
2023/10/16 01:57:12;;;;;;;13.17;5.40;;;5.20;1.00;;;;;;5004834;28;20703;-64
2023/10/16 01:59:42;;;;;;;10.57;4.90;;;5.10;1.00;;;;;;4990506;28;20590;-62
2023/10/16 02:06:13;;;;;;;8.80;4.47;;;5.00;1.00;;;;;;5008960;28;20247;-63
2023/10/16 02:08:41;;;;;;;11.00;4.33;;;5.00;1.00;;;;;;5009065;28;20197;-63
2023/10/16 02:11:13;;;;;;;8.10;4.60;;;5.00;1.00;;;;;;4990965;28;20197;-62
2023/10/16 02:13:41;;;;;;;8.03;5.07;;;5.00;1.00;;;;;;5006933;28;20193;-61
2023/10/16 02:16:17;;;;;;;9.00;4.60;;;5.10;1.00;;;;;;5006084;28;20572;-62
2023/10/16 02:18:46;;;;;;;6.67;3.97;;;5.10;1.00;;;;;;5005092;28;20243;-61
2023/10/16 02:21:15;;;;;;;5.83;4.37;;;5.10;1.00;;;;;;4989041;28;20216;-61
2023/10/16 02:23:46;;;;;;;6.63;3.00;;;5.00;1.00;;;;;;4984841;28;20292;-65
2023/10/16 02:26:18;;;;;;;11.00;4.47;;;5.50;1.00;;;;;;5004418;28;20268;-69
2023/10/16 02:28:53;;;;;;;12.60;4.60;;;5.60;1.00;;;;;;4986904;28;20283;-62
2023/10/16 02:31:21;;;;;;;13.90;4.57;;;5.40;1.00;;;;;;5007666;28;20231;-62
2023/10/16 02:33:55;;;;;;;10.30;5.37;;;5.20;1.00;;;;;;5005398;28;20201;-61
2023/10/16 02:36:22;;;;;;;6.90;4.07;;;5.10;1.00;;;;;;4972322;28;20208;-62
2023/10/16 02:38:55;;;;;;;14.10;5.03;;;5.00;1.00;;;;;;5007479;28;20771;-62
2023/10/16 02:41:23;;;;;;;5.73;4.83;;;5.00;1.00;;;;;;4990566;28;20235;-64
2023/10/16 02:43:50;;;;;;;10.10;5.00;;;5.00;1.00;;;;;;5007161;28;20197;-65
2023/10/16 02:46:21;;;;;;;10.50;5.97;;;5.00;1.00;;;;;;5005301;28;20224;-67
2023/10/16 02:48:50;;;;;;;13.77;6.63;;;4.90;1.00;;;;;;4989901;28;20662;-65
2023/10/16 02:51:17;;;;;;;8.87;5.73;;;5.00;1.00;;;;;;5008239;28;20275;-65
2023/10/16 02:53:46;;;;;;;11.10;5.10;;;5.00;1.00;;;;;;5005080;28;20201;-65
2023/10/16 02:56:17;;;;;;;15.90;6.63;;;5.00;1.00;;;;;;4989275;28;20212;-66
2023/10/16 02:58:46;;;;;;;10.63;5.50;;;4.90;1.00;;;;;;4987896;28;20843;-65
2023/10/16 03:01:15;;;;;;;8.13;5.33;;;4.90;1.00;;;;;;5007587;28;20311;-65
2023/10/16 03:03:43;;;;;;;9.13;5.10;;;4.80;1.00;;;;;;4989688;28;20212;-65
2023/10/16 03:06:11;;;;;;;8.30;4.83;;;4.80;1.00;;;;;;5006213;28;20228;-66
2023/10/16 03:08:38;;;;;;;9.00;4.57;;;4.70;1.00;;;;;;5007188;28;20200;-65
2023/10/16 03:11:13;;;;;;;10.00;4.50;;;4.70;1.00;;;;;;5005610;28;20205;-66
2023/10/16 03:13:41;;;;;;;12.20;5.43;;;4.70;1.00;;;;;;5008109;28;20648;-64
2023/10/16 03:16:15;;;;;;;8.20;5.53;;;4.70;1.00;;;;;;5001429;28;20232;-69
2023/10/16 03:18:44;;;;;;;11.37;5.27;;;4.60;1.00;;;;;;4986835;28;20208;-66
2023/10/16 03:23:43;;;;;;;18.63;10.63;;;4.60;1.00;;;;;;4990965;28;20189;-66
2023/10/16 03:26:31;;;;;;;12.27;8.00;;;4.70;1.00;;;;;;4990932;28;20204;-66
2023/10/16 03:29:00;;;;;;;11.40;6.63;;;4.60;1.00;;;;;;5007186;28;20189;-65
2023/10/16 03:31:28;;;;;;;11.67;7.13;;;4.50;1.00;;;;;;4971165;28;20295;-66
2023/10/16 03:33:55;;;;;;;11.53;6.87;;;4.50;1.00;;;;;;5005995;28;21904;-68
2023/10/16 03:36:22;;;;;;;15.67;7.90;;;4.50;1.00;;;;;;5009190;28;20219;-62
2023/10/16 03:38:52;;;;;;;10.20;6.27;;;4.50;1.00;;;;;;5007086;28;20736;-62
2023/10/16 03:44:07;;;;;;;15.60;10.13;;;4.60;1.00;;;;;;5003413;28;20197;-65
2023/10/16 03:46:34;;;;;;;13.30;8.73;;;4.70;1.00;;;;;;4990777;28;20228;-70
2023/10/16 03:49:01;;;;;;;12.07;7.37;;;4.60;1.00;;;;;;4987828;28;20211;-65
2023/10/16 03:51:28;;;;;;;9.87;7.00;;;4.50;1.00;;;;;;4988897;28;20765;-60
2023/10/16 03:53:56;;;;;;;11.83;7.13;;;4.60;1.00;;;;;;5005056;28;20212;-59
2023/10/16 03:56:26;;;;;;;11.70;6.40;;;4.70;1.00;;;;;;4998488;28;20260;-61
2023/10/16 03:58:55;;;;;;;18.43;7.37;;;4.60;1.00;;;;;;5011554;28;20199;-61
2023/10/16 04:01:27;;;;;;;16.87;5.73;;;4.60;1.00;;;;;;5007301;28;20225;-61
2023/10/16 04:03:57;;;;;;;9.57;6.80;;;4.60;1.00;;;;;;5012534;28;20724;-61
2023/10/16 04:06:26;;;;;;;9.80;6.63;;;4.60;1.00;;;;;;5006392;28;20200;-63
2023/10/16 04:08:55;;;;;;;9.27;6.23;;;4.60;1.00;;;;;;5008041;28;20255;-62
2023/10/16 04:11:24;;;;;;;10.37;6.17;;;4.60;1.00;;;;;;5011571;28;20212;-61
2023/10/16 04:13:54;;;;;;;11.63;6.70;;;4.70;1.00;;;;;;5011196;28;20734;-61
2023/10/16 04:18:56;;;;;;;11.13;6.37;;;4.80;1.00;;;;;;5004763;28;20248;-62
2023/10/16 04:21:44;;;;;;;13.27;6.40;;;4.80;1.00;;;;;;5004514;28;20295;-60
2023/10/16 04:30:10;;;;;;;10.47;6.57;;;5.70;1.00;;;;;;5005519;28;20278;-60
2023/10/16 04:33:13;;;;;;;10.17;5.90;;;5.80;1.00;;;;;;4991302;28;20278;-61
2023/10/16 04:38:27;;;;;;;12.43;6.83;;;5.30;1.00;;;;;;4992722;28;20689;-67
2023/10/16 04:49:28;;;;;;;15.13;8.03;;;5.00;1.00;;;;;;5005801;28;20366;-63
2023/10/16 04:52:06;;;;;;;17.70;9.27;;;4.90;1.00;;;;;;5005404;28;20728;-64
2023/10/16 05:00:12;;;;;;;11.53;7.07;;;4.60;1.00;;;;;;4988446;28;20245;-64
2023/10/16 05:02:52;;;;;;;22.33;10.50;;;4.90;1.00;;;;;;4999564;28;20545;-63
2023/10/16 05:10:51;;;;;;;17.20;9.37;;;5.50;1.00;;;;;;5008419;28;20204;-66
2023/10/16 05:13:37;;;;;;;21.17;9.43;;;5.70;1.00;;;;;;5009472;28;20229;-66
2023/10/16 06:14:12;;;;;;;20.27;7.13;;;5.40;1.00;;;;;;5005310;28;20822;-65
2023/10/16 06:16:47;;;;;;;12.90;6.07;;;5.50;99.90;;;;;;4990072;28;20720;-64
2023/10/16 06:19:15;;;;;;;9.43;5.80;;;5.60;99.90;;;;;;5001377;28;20193;-61
2023/10/16 06:21:46;;;;;;;23.20;10.10;;;5.70;99.90;;;;;;5003641;28;20204;-63
2023/10/16 06:24:28;;;;;;;16.53;8.70;;;5.80;99.90;;;;;;5007215;28;20193;-64
2023/10/16 06:26:56;;;;;;;26.33;8.63;;;5.80;99.90;;;;;;5005440;28;20216;-61
2023/10/16 06:29:34;;;;;;;15.80;7.50;;;5.90;99.90;;;;;;4987263;28;20193;-69
2023/10/16 06:32:07;;;;;;;12.17;6.43;;;6.00;99.90;;;;;;4989922;28;20284;-62
2023/10/16 06:34:35;;;;;;;12.90;6.70;;;6.00;99.90;;;;;;5006117;28;20192;-63
2023/10/16 06:37:09;;;;;;;17.53;5.90;;;6.20;99.90;;;;;;4988898;28;20554;-63
2023/10/16 06:39:36;;;;;;;11.87;5.97;;;6.20;99.90;;;;;;4972236;28;20206;-63
2023/10/16 06:42:04;;;;;;;12.53;5.83;;;6.30;99.90;;;;;;4988522;28;20681;-63
2023/10/16 06:44:36;;;;;;;11.53;5.47;;;6.50;99.90;;;;;;5004096;28;20173;-63
2023/10/16 06:47:03;;;;;;;17.77;5.83;;;6.50;99.90;;;;;;4989065;28;20696;-63
2023/10/16 06:49:37;;;;;;;13.27;5.43;;;6.50;99.90;;;;;;5004887;28;20203;-69
2023/10/16 06:52:06;;;;;;;12.67;5.40;;;6.60;99.90;;;;;;5002299;28;20181;-70
2023/10/16 06:54:37;;;;;;;10.17;5.30;;;6.70;99.90;;;;;;5008720;28;20205;-64
2023/10/16 06:57:10;;;;;;;9.83;5.20;;;6.60;99.90;;;;;;4989146;28;20227;-64
2023/10/16 06:59:45;;;;;;;10.27;4.63;;;6.50;99.90;;;;;;5007358;28;20204;-65
2023/10/16 07:02:15;;;;;;;12.30;5.10;;;6.80;99.90;;;;;;5007300;28;20319;-66
2023/10/16 07:04:44;;;;;;;8.00;4.20;;;7.40;99.90;;;;;;4996395;28;20271;-65
2023/10/16 07:07:15;;;;;;;10.57;5.80;;;7.70;99.90;;;;;;5004650;28;20688;-63
2023/10/16 07:09:47;;;;;;;10.50;5.90;;;7.80;99.90;;;;;;4983119;28;20730;-62
2023/10/16 07:12:18;;;;;;;12.23;6.03;;;7.90;99.90;;;;;;4984472;28;20204;-63
2023/10/16 07:14:55;;;;;;;7.77;4.97;;;7.90;99.90;;;;;;4988765;28;20315;-63
2023/10/16 07:17:28;;;;;;;11.87;5.30;;;8.10;99.90;;;;;;5009095;28;20248;-66
2023/10/16 07:19:58;;;;;;;9.90;4.03;;;8.30;99.90;;;;;;5001666;28;20273;-63
2023/10/16 07:22:31;;;;;;;8.87;4.03;;;8.20;99.90;;;;;;5000820;28;20224;-63
2023/10/16 07:27:46;;;;;;;9.03;5.53;;;8.10;99.90;;;;;;5002519;28;20215;-63
2023/10/16 07:30:23;;;;;;;7.53;4.23;;;8.00;99.90;;;;;;4997472;28;20189;-63
2023/10/16 07:32:51;;;;;;;8.17;4.80;;;8.00;99.90;;;;;;5002518;28;20521;-62
2023/10/16 07:35:21;;;;;;;10.70;4.73;;;7.90;99.90;;;;;;4997937;28;20209;-63
2023/10/16 07:37:49;;;;;;;10.80;6.00;;;7.90;99.90;;;;;;4997045;28;20302;-63
2023/10/16 07:40:16;;;;;;;10.33;5.00;;;8.10;99.90;;;;;;4969759;28;20818;-66
2023/10/16 07:42:46;;;;;;;12.30;6.37;;;8.20;99.90;;;;;;4993151;28;20245;-63
2023/10/16 07:45:14;;;;;;;10.90;5.70;;;8.50;99.90;;;;;;5001728;28;20228;-63
2023/10/16 07:47:45;;;;;;;10.40;5.50;;;8.40;99.90;;;;;;4989208;28;20293;-63
2023/10/16 07:50:12;;;;;;;9.03;5.07;;;8.40;99.90;;;;;;5002615;28;20801;-64
2023/10/16 07:52:41;;;;;;;8.33;4.87;;;8.50;99.90;;;;;;4988770;28;20199;-63
2023/10/16 07:55:18;;;;;;;10.27;5.47;;;8.50;99.90;;;;;;5005869;28;20196;-63
2023/10/16 07:57:47;;;;;;;11.10;4.40;;;8.60;99.90;;;;;;5004211;28;20323;-63
2023/10/16 08:00:14;;;;;;;14.43;6.03;;;8.90;99.90;;;;;;5002376;28;20590;-63
2023/10/16 08:02:47;;;;;;;7.77;4.47;;;9.10;99.90;;;;;;4990438;28;20220;-63
2023/10/16 08:05:15;;;;;;;14.70;5.53;;;9.10;99.90;;;;;;5003920;28;20794;-63
2023/10/16 08:07:49;;;;;;;8.90;4.83;;;9.20;99.90;;;;;;5002801;28;20692;-63
2023/10/16 08:13:18;;;;;;;8.13;4.00;;;9.50;99.90;;;;;;4932361;28;20205;-63
2023/10/16 08:15:45;;;;;;;10.87;4.50;;;9.50;99.90;;;;;;5000361;28;20705;-63
2023/10/16 08:18:13;;;;;;;8.23;5.50;;;9.70;99.90;;;;;;5001786;28;20202;-65
2023/10/16 08:21:00;;;;;;;10.03;5.07;;;10.10;99.90;;;;;;5005378;28;20208;-68
2023/10/16 08:23:34;;;;;;;8.37;3.97;;;10.60;99.90;;;;;;4968171;28;20320;-70
2023/10/16 08:26:14;;;;;;;13.13;5.63;;;10.60;99.90;;;;;;4997095;28;20203;-69
2023/10/16 08:28:45;;;;;;;7.43;4.20;;;10.80;99.90;;;;;;4981498;28;20245;-66
2023/10/16 08:31:24;;;;;;;7.17;4.40;;;11.00;99.90;;;;;;5003939;28;20669;-65
2023/10/16 08:33:55;;;;;;;6.40;4.07;;;11.10;99.90;;;;;;4983632;28;20669;-70
2023/10/16 08:36:23;;;;;;;14.30;4.70;;;10.80;99.90;;;;;;4990321;28;20185;-66
2023/10/16 08:38:53;;;;;;;9.97;4.40;;;11.00;99.90;;;;;;4999800;28;20531;-66
2023/10/16 08:42:30;;;;;;;9.13;4.57;;;11.00;99.90;;;;;;5004284;28;20205;-65
2023/10/16 08:44:27;;;;;;;7.63;5.03;;;10.70;99.90;;;;;;4989690;28;20351;-73
2023/10/16 08:49:25;;;;;;;9.97;4.37;;;11.60;99.90;;;;;;5014771;28;20188;-66
2023/10/16 08:51:54;;;;;;;6.60;4.00;;;12.60;99.90;;;;;;5013976;28;20208;-65
2023/10/16 08:57:18;;;;;;;7.27;4.17;;;14.30;99.90;;;;;;4964001;28;20218;-66
2023/10/16 08:59:49;;;;;;;5.83;3.97;;;14.30;99.90;;;;;;5013138;28;20201;-66
2023/10/16 09:02:20;;;;;;;9.68;5.20;;;14.10;99.90;;;;;;5011512;28;20223;-66
2023/10/16 09:04:52;;;;;;;9.85;4.40;;;13.70;99.90;;;;;;5010437;28;20224;-66
2023/10/16 09:07:20;;;;;;;7.65;4.03;;;14.50;99.90;;;;;;5007912;28;20520;-67
2023/10/16 09:09:53;;;;;;;7.30;4.50;;;13.80;99.90;;;;;;4995321;28;20204;-66
2023/10/16 09:12:26;;;;;;;7.43;4.30;;;13.80;99.90;;;;;;5010961;28;20634;-66
2023/10/16 09:15:05;;;;;;;8.50;4.07;;;12.70;99.90;;;;;;5011429;28;20205;-66
2023/10/16 09:17:35;;;;;;;6.37;4.57;;;11.70;99.90;;;;;;5003780;28;20248;-66
2023/10/16 09:20:13;;;;;;;9.17;4.93;;;11.90;99.90;;;;;;4996654;28;20204;-66
2023/10/16 09:22:48;;;;;;;7.53;4.10;;;12.50;99.90;;;;;;4988485;28;20209;-67
2023/10/16 09:25:22;;;;;;;11.70;5.40;;;12.40;99.90;;;;;;4998107;28;20268;-66
2023/10/16 09:28:05;;;;;;;9.93;4.63;;;11.60;99.90;;;;;;4981926;28;20201;-66
2023/10/16 09:30:33;;;;;;;11.10;5.17;;;11.10;99.90;;;;;;5003152;28;20205;-66
2023/10/16 09:33:03;;;;;;;10.27;4.20;;;11.10;99.90;;;;;;5001790;28;20201;-71
2023/10/16 09:35:32;;;;;;;11.70;5.40;;;11.60;99.90;;;;;;4971302;28;20204;-68
2023/10/16 09:38:17;;;;;;;10.87;5.87;;;11.50;99.90;;;;;;4975603;28;20316;-65
2023/10/16 09:41:37;;;;;;;8.63;4.90;;;11.40;99.90;;;;;;5003093;28;20264;-75
2023/10/16 09:44:06;;;;;;;12.67;5.07;;;11.90;99.90;;;;;;4987018;28;20235;-70
2023/10/16 09:49:21;;;;;;;9.77;4.50;;;11.80;99.90;;;;;;5006377;28;20201;-69
2023/10/16 09:51:50;;;;;;;11.57;4.03;;;11.70;99.90;;;;;;4978897;28;20643;-63
2023/10/16 09:54:33;;;;;;;9.03;5.00;;;11.50;99.90;;;;;;5006874;28;20196;-67
2023/10/16 09:57:06;;;;;;;7.83;4.80;;;12.20;99.90;;;;;;5000441;28;20197;-65
2023/10/16 09:59:38;;;;;;;7.60;4.10;;;12.70;99.90;;;;;;5003192;28;20193;-64
2023/10/16 10:02:08;;;;;;;8.70;4.30;;;13.50;99.90;;;;;;4984492;28;20291;-64
2023/10/16 10:04:39;;;;;;;7.10;3.95;;;15.00;99.90;;;;;;5001363;28;20251;-64
2023/10/16 10:07:12;;;;;;;8.27;4.00;;;17.20;99.90;;;;;;4999804;28;20296;-65
2023/10/16 10:09:46;;;;;;;5.25;3.50;;;19.10;99.90;;;;;;4987215;28;20255;-70
2023/10/16 10:12:33;;;;;;;5.82;3.63;;;19.90;99.90;;;;;;4987500;28;20651;-66
2023/10/16 10:15:34;;;;;;;5.93;3.65;;;19.20;99.90;;;;;;5013145;28;20283;-75
2023/10/16 10:18:31;;;;;;;6.82;3.75;;;19.80;99.90;;;;;;5012710;28;20197;-67
2023/10/16 10:20:58;;;;;;;8.05;4.30;;;18.90;99.90;;;;;;4991948;28;20204;-66
2023/10/16 10:23:26;;;;;;;7.28;4.60;;;20.50;99.90;;;;;;4996289;28;20743;-65
2023/10/16 10:25:54;;;;;;;7.35;3.85;;;21.00;99.90;;;;;;5007486;28;20697;-74
2023/10/16 10:28:32;;;;;;;6.75;3.90;;;22.50;99.90;;;;;;4980389;28;20644;-66
2023/10/16 10:31:04;;;;;;;6.72;3.50;;;23.10;99.90;;;;;;4989410;28;20205;-68
2023/10/16 10:33:42;;;;;;;6.05;3.92;;;24.10;99.90;;;;;;5009464;28;20653;-66
2023/10/16 10:36:39;;;;;;;7.35;4.15;;;25.50;99.90;;;;;;4989277;28;20306;-66
2023/10/16 10:39:22;;;;;;;5.28;3.70;;;26.80;99.90;;;;;;5000441;28;20271;-68
2023/10/16 10:42:03;;;;;;;9.73;5.13;;;27.10;99.90;;;;;;4987380;28;20217;-70
2023/10/16 10:44:37;;;;;;;7.68;4.13;;;28.50;99.90;;;;;;4990863;28;20634;-69
2023/10/16 10:47:32;;;;;;;5.57;3.67;;;29.50;99.90;;;;;;4986848;28;20205;-67
2023/10/16 10:50:11;;;;;;;3.72;3.22;;;29.90;99.90;;;;;;4999085;28;20444;-68
2023/10/16 10:52:40;;;;;;;4.82;3.58;;;30.10;99.90;;;;;;4986226;28;20215;-67
2023/10/16 10:55:29;;;;;;;6.25;3.70;;;28.50;99.90;;;;;;4990364;28;20291;-67
2023/10/16 10:58:11;;;;;;;7.53;4.32;;;28.20;99.90;;;;;;5001992;28;20203;-67
2023/10/16 11:00:45;;;;;;;3.97;3.58;;;27.80;99.90;;;;;;4988521;28;20221;-67
2023/10/16 11:03:22;;;;;;;8.40;3.92;;;28.60;99.90;;;;;;5001391;28;20216;-67
2023/10/16 11:05:50;;;;;;;7.68;5.18;;;28.30;99.90;;;;;;4974007;28;20264;-72
2023/10/16 11:08:22;;;;;;;7.82;5.30;;;26.70;99.90;;;;;;4991359;28;20300;-68
2023/10/16 11:10:56;;;;;;;8.82;5.95;;;25.10;99.90;;;;;;4984524;28;20213;-68
2023/10/16 11:13:26;;;;;;;7.03;5.70;;;23.30;99.90;;;;;;4999418;28;20221;-67
2023/10/16 11:15:57;;;;;;;9.18;5.80;;;23.70;99.90;;;;;;4987432;28;20756;-67
2023/10/16 11:18:28;;;;;;;10.82;6.18;;;24.10;99.90;;;;;;4987400;28;20193;-68
2023/10/16 11:21:04;;;;;;;8.77;6.38;;;24.50;99.90;;;;;;5006230;28;20208;-66
2023/10/16 11:23:32;;;;;;;4.65;4.05;;;23.60;99.90;;;;;;4999558;28;20224;-67
2023/10/16 11:26:00;;;;;;;6.53;5.43;;;23.20;99.90;;;;;;4999332;28;20227;-66
2023/10/16 11:28:37;;;;;;;11.30;5.95;;;23.20;99.90;;;;;;4985551;28;20219;-66
2023/10/16 11:31:09;;;;;;;11.50;5.70;;;23.60;99.90;;;;;;4987968;28;20193;-69
2023/10/16 11:34:00;;;;;;;7.10;5.15;;;24.30;99.90;;;;;;4999124;28;20651;-66
2023/10/16 11:36:29;;;;;;;4.60;3.97;;;23.70;99.90;;;;;;5007276;28;20184;-67
2023/10/16 11:39:07;;;;;;;4.65;3.75;;;21.40;99.90;;;;;;5000267;28;20602;-67
2023/10/16 11:41:34;;;;;;;5.47;4.28;;;20.30;99.90;;;;;;5002240;28;20211;-65
2023/10/16 11:44:05;;;;;;;6.30;4.93;;;19.50;99.90;;;;;;5001773;28;20217;-66
2023/10/16 11:46:39;;;;;;;6.65;5.05;;;19.10;99.90;;;;;;4986170;28;20568;-67
2023/10/16 11:51:55;;;;;;;9.00;4.10;;;17.70;99.90;;;;;;4999028;28;20551;-66
2023/10/16 11:54:23;;;;;;;4.10;3.70;;;17.10;99.90;;;;;;4995339;28;20232;-65
2023/10/16 11:56:55;;;;;;;5.10;3.80;;;16.60;99.90;;;;;;4987501;28;20200;-67
2023/10/16 11:59:28;;;;;;;4.32;3.10;;;16.10;99.90;;;;;;4984208;28;20681;-67
2023/10/16 12:02:10;;;;;;;3.95;3.42;;;15.70;99.90;;;;;;4985050;28;20209;-68
2023/10/16 12:04:42;;;;;;;5.10;3.88;;;15.60;99.90;;;;;;4990314;28;20574;-67
2023/10/16 12:07:13;;;;;;;7.65;3.60;;;16.70;99.90;;;;;;5004830;28;20248;-71
2023/10/16 12:09:42;;;;;;;5.03;3.17;;;18.10;99.90;;;;;;4969223;28;20197;-69
2023/10/16 12:12:19;;;;;;;3.72;3.42;;;17.70;99.90;;;;;;4999610;28;20196;-70
2023/10/16 12:14:51;;;;;;;4.85;3.53;;;17.60;99.90;;;;;;4984181;28;20291;-72
2023/10/16 12:17:20;;;;;;;4.15;3.20;;;17.90;99.90;;;;;;4953483;28;20261;-70
2023/10/16 12:19:48;;;;;;;4.75;2.80;;;19.00;99.90;;;;;;4960800;28;21218;-69
2023/10/16 12:22:20;;;;;;;2.70;2.40;;;19.50;99.90;;;;;;4966619;28;21404;-70
2023/10/16 12:24:48;;;;;;;4.53;2.95;;;19.90;99.90;;;;;;4963322;28;20190;-70
2023/10/16 12:27:16;;;;;;;4.82;2.75;;;19.40;99.90;;;;;;4967898;28;20899;-69
2023/10/16 12:29:46;;;;;;;3.63;3.33;;;18.70;99.90;;;;;;4965634;28;20198;-69
2023/10/16 12:32:13;;;;;;;4.15;2.85;;;18.40;99.90;;;;;;4965079;28;20539;-69
2023/10/16 12:34:41;;;;;;;5.85;3.10;;;17.20;99.90;;;;;;4968465;28;20197;-69
2023/10/16 12:37:09;;;;;;;4.47;2.60;;;16.60;99.90;;;;;;4970548;28;20194;-69
2023/10/16 12:39:45;;;;;;;3.92;2.70;;;16.10;99.90;;;;;;4979846;28;20211;-69
2023/10/16 12:42:14;;;;;;;3.47;2.58;;;16.60;99.90;;;;;;4966349;28;20328;-67
2023/10/16 12:44:43;;;;;;;3.58;3.28;;;16.30;99.90;;;;;;4973880;28;20217;-70
2023/10/16 12:47:11;;;;;;;3.60;2.40;;;16.00;99.90;;;;;;4971747;28;20198;-68
2023/10/16 12:49:53;;;;;;;5.20;2.70;;;15.90;99.90;;;;;;4962359;28;20208;-67
2023/10/16 12:52:20;;;;;;;3.53;2.70;;;16.00;99.90;;;;;;4966108;28;20205;-68
2023/10/16 12:54:52;;;;;;;2.88;2.67;;;16.00;99.90;;;;;;4971258;28;20201;-68
2023/10/16 12:57:21;;;;;;;6.95;3.03;;;16.50;99.90;;;;;;4969191;28;20198;-69
2023/10/16 12:59:48;;;;;;;3.47;3.13;;;16.80;99.90;;;;;;4964573;28;20558;-69
2023/10/16 13:02:25;;;;;;;3.00;2.80;;;17.00;99.90;;;;;;4967673;28;20288;-69
2023/10/16 13:04:53;;;;;;;3.20;2.90;;;17.10;99.90;;;;;;4964911;28;20191;-70
2023/10/16 13:07:22;;;;;;;6.80;4.53;;;17.20;99.90;;;;;;4967613;28;20614;-69
2023/10/16 13:10:14;;;;;;;5.03;2.80;;;17.10;99.90;;;;;;4965604;28;20285;-69
2023/10/16 13:12:42;;;;;;;3.05;2.65;;;17.00;99.90;;;;;;4967097;28;20205;-69
2023/10/16 13:15:10;;;;;;;3.58;2.50;;;17.10;99.90;;;;;;4964726;28;20210;-68
2023/10/16 13:17:37;;;;;;;3.78;2.30;;;17.30;99.90;;;;;;5005764;28;20233;-68
2023/10/16 13:20:05;;;;;;;3.55;2.47;;;17.40;99.90;;;;;;5005551;28;20217;-68
2023/10/16 13:22:33;;;;;;;2.80;2.60;;;17.00;99.90;;;;;;4991086;28;20637;-69
2023/10/16 13:25:00;;;;;;;4.65;2.75;;;16.90;99.90;;;;;;4987756;28;20197;-69
2023/10/16 13:27:27;;;;;;;6.38;4.32;;;16.70;99.90;;;;;;4974126;28;20189;-69
2023/10/16 13:29:54;;;;;;;5.38;2.80;;;16.40;99.90;;;;;;5005870;28;20193;-68
2023/10/16 13:32:21;;;;;;;3.25;2.90;;;15.90;99.90;;;;;;5009202;28;20189;-69
2023/10/16 13:34:50;;;;;;;7.38;2.90;;;15.70;99.90;;;;;;5004999;28;20201;-68
2023/10/16 13:37:18;;;;;;;5.20;2.90;;;15.50;99.90;;;;;;5011839;28;20193;-68
2023/10/16 13:39:45;;;;;;;5.43;2.60;;;15.40;99.90;;;;;;4987109;28;20213;-69
2023/10/16 13:42:14;;;;;;;4.25;3.70;;;15.60;99.90;;;;;;5004405;28;20617;-69
2023/10/16 13:44:42;;;;;;;3.92;2.40;;;15.70;99.90;;;;;;5007152;28;20186;-68
2023/10/16 13:47:10;;;;;;;6.45;2.67;;;15.80;99.90;;;;;;5004231;28;20636;-68
2023/10/16 13:49:41;;;;;;;2.60;2.40;;;15.80;99.90;;;;;;4990729;28;20292;-69
2023/10/16 13:52:08;;;;;;;12.93;2.63;;;15.40;99.90;;;;;;5010577;28;20297;-68
2023/10/16 13:54:40;;;;;;;5.85;2.65;;;15.40;99.90;;;;;;4999624;28;20528;-69
2023/10/16 13:57:08;;;;;;;2.35;2.22;;;15.40;99.90;;;;;;4988926;28;20205;-69
2023/10/16 13:59:35;;;;;;;6.00;2.30;;;15.20;99.90;;;;;;5004365;28;20223;-69
2023/10/16 14:02:02;;;;;;;3.22;2.67;;;15.20;99.90;;;;;;5004253;28;20657;-68
2023/10/16 14:04:35;;;;;;;4.20;2.35;;;15.10;99.90;;;;;;5005235;28;20507;-68
2023/10/16 14:07:08;;;;;;;4.78;2.55;;;15.20;99.90;;;;;;4992642;28;20528;-66
2023/10/16 14:09:56;;;;;;;4.25;2.35;;;15.20;99.90;;;;;;4988692;28;20750;-66
2023/10/16 14:12:25;;;;;;;3.97;2.22;;;15.00;99.90;;;;;;5011005;28;20280;-68
2023/10/16 14:14:52;;;;;;;2.30;2.10;;;15.00;99.90;;;;;;5008031;28;20186;-67
2023/10/16 14:17:20;;;;;;;7.47;2.50;;;15.00;99.90;;;;;;5009538;28;20252;-68
2023/10/16 14:19:47;;;;;;;6.75;3.53;;;14.90;99.90;;;;;;5002051;28;20568;-68
2023/10/16 14:22:19;;;;;;;4.57;2.25;;;14.90;99.90;;;;;;5006482;28;20193;-68
2023/10/16 14:24:46;;;;;;;2.40;2.20;;;14.80;99.90;;;;;;5003514;28;20223;-68
2023/10/16 14:27:20;;;;;;;2.45;2.20;;;14.90;99.90;;;;;;5007954;28;20696;-68
2023/10/16 14:29:48;;;;;;;2.70;2.30;;;15.00;99.90;;;;;;4990550;28;20197;-68
2023/10/16 14:32:15;;;;;;;4.65;2.63;;;15.00;99.90;;;;;;5006104;28;20200;-68
2023/10/16 14:34:42;;;;;;;2.88;2.55;;;15.30;99.90;;;;;;5006317;28;20204;-68
2023/10/16 14:37:09;;;;;;;2.97;2.10;;;15.20;99.90;;;;;;5009734;28;20192;-68
2023/10/16 14:39:36;;;;;;;7.75;2.33;;;15.30;99.90;;;;;;4989869;28;20550;-69
2023/10/16 14:42:05;;;;;;;2.10;1.90;;;15.30;99.90;;;;;;5007943;28;20923;-69
2023/10/16 14:44:33;;;;;;;2.72;2.38;;;15.20;99.90;;;;;;4992125;28;20625;-68
2023/10/16 14:47:01;;;;;;;3.78;2.42;;;15.20;99.90;;;;;;5007777;28;20657;-69
2023/10/16 14:49:30;;;;;;;3.55;2.20;;;14.80;99.90;;;;;;4987678;28;20262;-68
2023/10/16 14:51:57;;;;;;;6.35;2.85;;;14.80;99.90;;;;;;5004973;28;20196;-67
2023/10/16 14:54:25;;;;;;;5.22;2.58;;;14.80;99.90;;;;;;4998441;28;20205;-68
2023/10/16 14:56:58;;;;;;;3.33;2.40;;;14.70;99.90;;;;;;5008246;28;20231;-70
2023/10/16 14:59:26;;;;;;;4.35;2.40;;;14.70;99.90;;;;;;5007497;28;20201;-67
2023/10/16 15:01:54;;;;;;;5.72;2.22;;;14.60;99.90;;;;;;5003409;28;20804;-71
2023/10/16 15:04:23;;;;;;;3.60;2.55;;;14.40;99.90;;;;;;5007532;28;20216;-67
2023/10/16 15:06:52;;;;;;;2.15;1.90;;;14.10;99.90;;;;;;5005390;28;20646;-68
2023/10/16 15:09:19;;;;;;;3.30;2.45;;;14.30;99.90;;;;;;5003424;28;20587;-70
2023/10/16 15:11:46;;;;;;;2.30;2.13;;;14.30;99.90;;;;;;5005909;28;20560;-67